createdAt,value
2019-05-14T00:00:33.164Z,12.13
2019-05-14T00:03:02.285Z,12.13
2019-05-14T00:05:32.212Z,12.12
2019-05-14T00:08:02.230Z,12.10
2019-05-14T00:10:32.135Z,12.09
2019-05-14T00:13:01.612Z,12.09
2019-05-14T00:15:32.048Z,12.08
2019-05-14T00:18:01.241Z,12.06
2019-05-14T00:20:31.469Z,12.05
2019-05-14T00:23:01.495Z,12.03
2019-05-14T00:25:31.313Z,12.02
2019-05-14T00:28:01.420Z,12.02
2019-05-14T00:30:31.053Z,12.02
2019-05-14T00:33:01.035Z,12.01
2019-05-14T00:35:29.051Z,12.02
2019-05-14T00:37:57.051Z,11.99
2019-05-14T00:40:25.201Z,12.00
2019-05-14T00:42:54.355Z,11.99
2019-05-14T00:45:22.463Z,11.99
2019-05-14T00:47:52.531Z,11.98
2019-05-14T00:50:21.639Z,12.00
2019-05-14T00:52:51.627Z,12.00
2019-05-14T00:55:22.355Z,12.02
2019-05-14T00:57:52.156Z,12.03
2019-05-14T01:00:22.027Z,12.06
2019-05-14T01:02:51.820Z,12.07
2019-05-14T01:05:21.575Z,12.09
2019-05-14T01:07:51.379Z,12.12
2019-05-14T01:10:21.974Z,12.13
2019-05-14T01:12:51.865Z,12.17
2019-05-14T01:15:21.717Z,12.17
2019-05-14T01:17:51.533Z,12.18
2019-05-14T01:20:21.360Z,12.19
2019-05-14T01:22:51.418Z,12.19
2019-05-14T01:25:19.476Z,12.18
2019-05-14T01:27:47.909Z,12.18
2019-05-14T01:32:51.219Z,12.15
2019-05-14T01:35:19.416Z,12.13
2019-05-14T01:37:47.774Z,12.10
2019-05-14T01:40:15.927Z,12.07
2019-05-14T01:42:44.233Z,12.04
2019-05-14T01:45:24.432Z,12.01
2019-05-14T01:47:42.261Z,11.96
2019-05-14T01:50:12.398Z,11.91
2019-05-14T01:52:41.738Z,11.86
2019-05-14T01:55:11.368Z,11.81
2019-05-14T01:57:42.271Z,11.74
2019-05-14T02:00:11.873Z,11.68
2019-05-14T02:02:41.786Z,11.61
2019-05-14T02:05:12.253Z,11.54
2019-05-14T02:07:41.982Z,11.47
2019-05-14T02:10:11.879Z,11.41
2019-05-14T02:12:42.104Z,11.36
2019-05-14T02:15:11.881Z,11.30
2019-05-14T02:17:41.375Z,11.24
2019-05-14T02:20:12.771Z,11.18
2019-05-14T02:22:41.717Z,11.12
2019-05-14T02:25:11.623Z,11.06
2019-05-14T02:27:41.374Z,11.00
2019-05-14T02:30:09.969Z,10.94
2019-05-14T02:32:40.470Z,10.89
2019-05-14T02:35:09.836Z,10.84
2019-05-14T02:37:40.073Z,10.78
2019-05-14T02:40:09.811Z,10.73
2019-05-14T02:42:40.113Z,10.67
2019-05-14T02:45:09.811Z,10.61
2019-05-14T02:47:39.649Z,10.57
2019-05-14T02:50:09.944Z,10.52
2019-05-14T02:52:40.206Z,10.46
2019-05-14T02:55:09.414Z,10.41
2019-05-14T02:57:39.543Z,10.35
2019-05-14T03:00:10.171Z,10.29
2019-05-14T03:02:40.413Z,10.24
2019-05-14T03:05:09.810Z,10.19
2019-05-14T03:07:39.391Z,10.13
2019-05-14T03:10:10.094Z,10.08
2019-05-14T03:12:39.789Z,10.04
2019-05-14T03:15:09.667Z,10.00
2019-05-14T03:17:40.406Z,9.95
2019-05-14T03:20:09.150Z,9.91
2019-05-14T03:22:47.116Z,9.87
2019-05-14T03:25:10.140Z,9.80
2019-05-14T03:27:40.512Z,9.75
2019-05-14T03:30:12.368Z,9.69
2019-05-14T03:32:42.405Z,9.63
2019-05-14T03:35:13.474Z,9.58
2019-05-14T03:37:39.238Z,9.52
2019-05-14T03:40:09.243Z,9.47
2019-05-14T03:42:39.901Z,9.42
2019-05-14T03:45:08.715Z,9.38
2019-05-14T03:47:39.364Z,9.32
2019-05-14T03:50:10.085Z,9.27
2019-05-14T03:52:39.918Z,9.22
2019-05-14T03:55:09.339Z,9.18
2019-05-14T03:57:39.977Z,9.13
2019-05-14T04:00:10.306Z,9.11
2019-05-14T04:02:39.266Z,9.07
2019-05-14T04:05:09.503Z,9.03
2019-05-14T04:07:39.591Z,8.99
2019-05-14T04:10:10.377Z,8.96
2019-05-14T04:12:43.187Z,8.93
2019-05-14T04:15:11.209Z,8.90
2019-05-14T04:17:42.498Z,8.87
2019-05-14T04:20:12.421Z,8.85
2019-05-14T04:22:40.581Z,8.83
2019-05-14T04:25:10.874Z,8.80
2019-05-14T04:27:40.415Z,8.79
2019-05-14T04:30:10.669Z,8.78
2019-05-14T04:32:40.794Z,8.77
2019-05-14T04:35:09.659Z,8.77
2019-05-14T04:37:39.967Z,8.76
2019-05-14T04:40:10.052Z,8.76
2019-05-14T04:42:40.149Z,8.76
2019-05-14T04:45:10.919Z,8.77
2019-05-14T04:47:42.029Z,8.79
2019-05-14T04:50:10.523Z,8.80
2019-05-14T04:52:40.285Z,8.82
2019-05-14T04:55:09.828Z,8.84
2019-05-14T04:57:39.445Z,8.88
2019-05-14T05:00:11.665Z,8.90
2019-05-14T05:02:39.698Z,8.94
2019-05-14T05:05:09.098Z,8.98
2019-05-14T05:07:40.322Z,9.00
2019-05-14T05:10:10.217Z,9.05
2019-05-14T05:12:38.694Z,9.09
2019-05-14T05:15:09.304Z,9.13
2019-05-14T05:17:47.840Z,9.17
2019-05-14T05:20:09.968Z,9.20
2019-05-14T05:22:39.376Z,9.24
2019-05-14T05:25:09.262Z,9.29
2019-05-14T05:27:38.525Z,9.35
2019-05-14T05:30:08.449Z,9.40
2019-05-14T05:32:38.855Z,9.46
2019-05-14T05:35:09.494Z,9.52
2019-05-14T05:37:38.646Z,9.57
2019-05-14T05:40:09.121Z,9.65
2019-05-14T05:42:38.752Z,9.70
2019-05-14T05:45:08.139Z,9.77
2019-05-14T05:47:38.844Z,9.83
2019-05-14T05:50:08.737Z,9.91
2019-05-14T05:52:38.849Z,9.98
2019-05-14T05:55:08.997Z,10.05
2019-05-14T05:57:39.347Z,10.13
2019-05-14T06:00:09.433Z,10.22
2019-05-14T06:02:39.851Z,10.31
2019-05-14T06:05:08.368Z,10.41
2019-05-14T06:07:36.361Z,10.50
2019-05-14T06:10:08.010Z,10.59
2019-05-14T06:12:38.584Z,10.71
2019-05-14T06:15:08.667Z,10.82
2019-05-14T06:17:39.163Z,10.96
2019-05-14T06:20:08.561Z,11.10
2019-05-14T06:22:38.508Z,11.25
2019-05-14T06:25:10.491Z,11.40
2019-05-14T06:27:38.051Z,11.55
2019-05-14T06:30:09.110Z,11.71
2019-05-14T06:32:38.605Z,11.87
2019-05-14T06:35:08.876Z,12.05
2019-05-14T06:37:38.574Z,12.21
2019-05-14T06:40:08.786Z,12.40
2019-05-14T06:42:39.497Z,12.58
2019-05-14T06:45:09.014Z,12.74
2019-05-14T06:47:38.220Z,12.90
2019-05-14T06:50:08.556Z,13.07
2019-05-14T06:52:38.795Z,13.24
2019-05-14T06:55:08.967Z,13.43
2019-05-14T06:57:39.398Z,13.61
2019-05-14T07:00:08.425Z,13.79
2019-05-14T07:02:42.648Z,13.98
2019-05-14T07:05:08.379Z,14.18
2019-05-14T07:07:40.114Z,14.38
2019-05-14T07:10:08.876Z,14.54
2019-05-14T07:12:38.674Z,14.73
2019-05-14T07:15:09.362Z,14.92
2019-05-14T07:17:38.745Z,15.13
2019-05-14T07:20:08.856Z,15.32
2019-05-14T07:22:38.976Z,15.50
2019-05-14T07:25:09.933Z,15.68
2019-05-14T07:27:39.199Z,15.86
2019-05-14T07:30:09.847Z,16.04
2019-05-14T07:32:39.527Z,16.23
2019-05-14T07:35:09.162Z,16.42
2019-05-14T07:37:39.648Z,16.61
2019-05-14T07:40:08.677Z,16.80
2019-05-14T07:42:38.427Z,17.03
2019-05-14T07:45:09.621Z,17.26
2019-05-14T07:47:38.989Z,17.47
2019-05-14T07:50:08.878Z,17.67
2019-05-14T07:52:45.140Z,17.86
2019-05-14T07:55:09.281Z,18.05
2019-05-14T07:57:39.281Z,18.27
2019-05-14T08:00:09.014Z,18.48
2019-05-14T08:02:38.022Z,18.68
2019-05-14T08:05:08.778Z,18.88
2019-05-14T08:07:38.759Z,19.04
2019-05-14T08:10:09.057Z,19.25
2019-05-14T08:12:39.166Z,19.44
2019-05-14T08:15:15.210Z,19.66
2019-05-14T08:17:38.788Z,19.89
2019-05-14T08:20:08.981Z,20.08
2019-05-14T08:22:38.301Z,20.29
2019-05-14T08:25:08.699Z,20.48
2019-05-14T08:27:38.928Z,20.66
2019-05-14T08:30:09.176Z,20.86
2019-05-14T08:32:39.047Z,21.03
2019-05-14T08:35:09.062Z,21.21
2019-05-14T08:37:38.683Z,21.39
2019-05-14T08:40:09.542Z,21.51
2019-05-14T08:42:38.302Z,21.60
2019-05-14T08:45:12.325Z,21.70
2019-05-14T08:47:39.106Z,21.82
2019-05-14T08:50:09.197Z,21.88
2019-05-14T08:52:39.292Z,21.91
2019-05-14T08:55:11.089Z,21.98
2019-05-14T08:57:38.726Z,22.09
2019-05-14T09:00:13.781Z,22.25
2019-05-14T09:02:39.505Z,22.48
2019-05-14T09:05:10.173Z,22.68
2019-05-14T09:07:38.891Z,22.88
2019-05-14T09:10:08.648Z,23.06
2019-05-14T09:12:38.845Z,23.20
2019-05-14T09:15:09.732Z,23.36
2019-05-14T09:17:39.048Z,23.59
2019-05-14T09:20:11.467Z,23.82
2019-05-14T09:22:39.720Z,24.02
2019-05-14T09:25:08.606Z,24.20
2019-05-14T09:27:38.742Z,24.40
2019-05-14T09:30:09.727Z,24.56
2019-05-14T09:32:38.863Z,24.74
2019-05-14T09:35:09.832Z,24.87
2019-05-14T09:37:39.660Z,24.96
2019-05-14T09:40:08.816Z,25.04
2019-05-14T09:42:39.224Z,25.11
2019-05-14T09:45:11.079Z,25.22
2019-05-14T09:47:38.769Z,25.36
2019-05-14T09:50:22.683Z,25.53
2019-05-14T09:52:39.429Z,25.72
2019-05-14T09:55:09.355Z,25.91
2019-05-14T09:57:38.801Z,26.09
2019-05-14T10:00:09.315Z,26.27
2019-05-14T10:02:39.329Z,26.46
2019-05-14T10:05:09.173Z,26.63
2019-05-14T10:07:39.240Z,26.80
2019-05-14T10:10:08.398Z,26.90
2019-05-14T10:12:47.714Z,27.00
2019-05-14T10:15:08.920Z,27.04
2019-05-14T10:17:39.348Z,27.02
2019-05-14T10:20:08.774Z,26.95
2019-05-14T10:22:39.529Z,26.87
2019-05-14T10:25:09.142Z,26.80
2019-05-14T10:27:37.464Z,26.68
2019-05-14T10:30:09.823Z,26.54
2019-05-14T10:32:41.386Z,26.40
2019-05-14T10:35:08.515Z,26.23
2019-05-14T10:37:39.799Z,26.09
2019-05-14T10:40:10.413Z,25.94
2019-05-14T10:42:40.403Z,25.76
2019-05-14T10:45:12.671Z,25.61
2019-05-14T10:47:39.346Z,25.45
2019-05-14T10:50:13.376Z,25.29
2019-05-14T10:52:39.548Z,25.16
2019-05-14T10:55:08.145Z,25.04
2019-05-14T10:57:36.265Z,24.95
2019-05-14T11:00:08.624Z,24.90
2019-05-14T11:02:35.768Z,24.88
2019-05-14T11:05:04.627Z,24.91
2019-05-14T11:07:32.658Z,24.98
2019-05-14T11:10:00.703Z,25.11
2019-05-14T11:12:29.938Z,25.28
2019-05-14T11:14:58.001Z,25.44
2019-05-14T11:17:28.873Z,25.55
2019-05-14T11:19:55.954Z,25.65
2019-05-14T11:22:24.050Z,25.71
2019-05-14T11:24:52.129Z,25.76
2019-05-14T11:27:20.193Z,25.72
2019-05-14T11:29:49.097Z,25.64
2019-05-14T11:32:18.481Z,25.57
2019-05-14T11:34:46.976Z,25.53
2019-05-14T11:37:15.022Z,25.48
2019-05-14T11:39:43.030Z,25.46
2019-05-14T11:42:11.085Z,25.46
2019-05-14T11:44:39.213Z,25.45
2019-05-14T11:47:09.049Z,25.44
2019-05-14T11:49:37.449Z,25.43
2019-05-14T11:52:08.753Z,25.40
2019-05-14T11:54:40.627Z,25.44
2019-05-14T11:57:11.157Z,25.51
2019-05-14T11:59:35.602Z,25.67
2019-05-14T12:02:09.432Z,25.80
2019-05-14T12:04:38.981Z,25.88
2019-05-14T12:07:09.347Z,25.95
2019-05-14T12:09:39.149Z,26.01
2019-05-14T12:12:11.573Z,26.09
2019-05-14T12:14:38.000Z,26.25
2019-05-14T12:17:09.167Z,26.42
2019-05-14T12:19:38.859Z,26.57
2019-05-14T12:22:08.524Z,26.75
2019-05-14T12:24:38.546Z,26.85
2019-05-14T12:27:08.805Z,26.92
2019-05-14T12:29:36.112Z,26.93
2019-05-14T12:32:05.614Z,26.94
2019-05-14T12:34:33.995Z,26.95
2019-05-14T12:37:02.018Z,26.92
2019-05-14T12:39:31.190Z,26.88
2019-05-14T12:41:59.194Z,26.80
2019-05-14T12:44:29.129Z,26.74
2019-05-14T12:46:58.718Z,26.65
2019-05-14T12:49:27.306Z,26.51
2019-05-14T12:51:55.341Z,26.43
2019-05-14T12:54:23.837Z,26.41
2019-05-14T12:56:52.335Z,26.40
2019-05-14T12:59:20.435Z,26.33
2019-05-14T13:01:49.244Z,26.24
2019-05-14T13:04:20.116Z,26.18
2019-05-14T13:06:48.451Z,26.09
2019-05-14T13:09:21.349Z,26.02
2019-05-14T13:11:48.027Z,25.91
2019-05-14T13:14:16.304Z,25.80
2019-05-14T13:16:44.373Z,25.72
2019-05-14T13:19:12.537Z,25.58
2019-05-14T13:21:41.005Z,25.44
2019-05-14T13:24:09.063Z,25.25
2019-05-14T13:26:39.061Z,25.08
2019-05-14T13:29:10.615Z,24.91
2019-05-14T13:31:37.278Z,24.85
2019-05-14T13:34:08.910Z,24.81
2019-05-14T13:36:39.507Z,24.75
2019-05-14T13:39:09.259Z,24.70
2019-05-14T13:41:41.582Z,24.63
2019-05-14T13:44:18.462Z,24.57
2019-05-14T13:46:37.043Z,24.50
2019-05-14T13:49:05.125Z,24.45
2019-05-14T13:51:33.794Z,24.39
2019-05-14T13:54:02.267Z,24.37
2019-05-14T13:56:30.234Z,24.43
2019-05-14T13:58:59.214Z,24.51
2019-05-14T14:01:29.799Z,24.60
2019-05-14T14:04:06.245Z,24.63
2019-05-14T14:06:28.146Z,24.63
2019-05-14T14:08:59.225Z,24.60
2019-05-14T14:11:31.033Z,24.60
2019-05-14T14:13:58.460Z,24.59
2019-05-14T14:16:28.615Z,24.56
2019-05-14T14:19:02.632Z,24.51
2019-05-14T14:21:30.019Z,24.45
2019-05-14T14:23:59.227Z,24.40
2019-05-14T14:26:29.188Z,24.38
2019-05-14T14:28:59.902Z,24.39
2019-05-14T14:31:28.451Z,24.42
2019-05-14T14:33:56.509Z,24.41
2019-05-14T14:36:29.434Z,24.43
2019-05-14T14:38:58.629Z,24.40
2019-05-14T14:41:28.259Z,24.39
2019-05-14T14:43:55.697Z,24.37
2019-05-14T14:46:23.803Z,24.34
2019-05-14T14:48:52.142Z,24.29
2019-05-14T14:51:20.550Z,24.24
2019-05-14T14:53:58.924Z,24.18
2019-05-14T14:56:18.917Z,24.13
2019-05-14T14:58:49.301Z,24.09
2019-05-14T15:01:19.345Z,24.02
2019-05-14T15:03:49.510Z,23.94
2019-05-14T15:06:18.064Z,23.87
2019-05-14T15:08:46.238Z,23.74
2019-05-14T15:11:14.366Z,23.58
2019-05-14T15:13:42.433Z,23.45
2019-05-14T15:16:13.631Z,23.32
2019-05-14T15:18:41.149Z,23.19
2019-05-14T15:21:09.922Z,23.05
2019-05-14T15:23:43.009Z,22.98
2019-05-14T15:26:12.113Z,22.92
2019-05-14T15:28:38.755Z,22.85
2019-05-14T15:31:08.822Z,22.76
2019-05-14T15:33:37.108Z,22.69
2019-05-14T15:36:09.151Z,22.65
2019-05-14T15:38:39.689Z,22.62
2019-05-14T15:41:09.318Z,22.57
2019-05-14T15:43:39.556Z,22.51
2019-05-14T15:46:09.318Z,22.42
2019-05-14T15:48:39.453Z,22.30
2019-05-14T15:51:11.501Z,22.20
2019-05-14T15:53:38.663Z,22.09
2019-05-14T15:56:08.262Z,21.97
2019-05-14T15:58:38.765Z,21.87
2019-05-14T16:01:09.641Z,21.79
2019-05-14T16:03:36.322Z,21.71
2019-05-14T16:06:05.086Z,21.66
2019-05-14T16:08:33.530Z,21.62
2019-05-14T16:11:05.712Z,21.59
2019-05-14T16:13:33.447Z,21.52
2019-05-14T16:16:03.279Z,21.44
2019-05-14T16:18:31.397Z,21.32
2019-05-14T16:20:59.611Z,21.17
2019-05-14T16:23:28.216Z,21.06
2019-05-14T16:25:58.887Z,20.98
2019-05-14T16:28:28.683Z,20.91
2019-05-14T16:30:59.131Z,20.86
2019-05-14T16:33:29.185Z,20.78
2019-05-14T16:35:58.195Z,20.72
2019-05-14T16:38:28.564Z,20.68
2019-05-14T16:40:59.361Z,20.65
2019-05-14T16:43:35.955Z,20.62
2019-05-14T16:46:09.252Z,20.58
2019-05-14T16:48:39.400Z,20.56
2019-05-14T16:51:08.943Z,20.53
2019-05-14T16:53:45.619Z,20.51
2019-05-14T16:56:13.973Z,20.51
2019-05-14T16:58:42.625Z,20.50
2019-05-14T17:01:10.723Z,20.48
2019-05-14T17:03:40.193Z,20.43
2019-05-14T17:06:08.965Z,20.38
2019-05-14T17:08:39.335Z,20.35
2019-05-14T17:11:08.942Z,20.32
2019-05-14T17:13:44.347Z,20.27
2019-05-14T17:16:12.488Z,20.23
2019-05-14T17:18:50.871Z,20.19
2019-05-14T17:21:20.266Z,20.14
2019-05-14T17:23:49.042Z,20.07
2019-05-14T17:26:17.592Z,20.00
2019-05-14T17:28:45.737Z,19.93
2019-05-14T17:31:14.943Z,19.89
2019-05-14T17:33:43.037Z,19.86
2019-05-14T17:36:11.265Z,19.81
2019-05-14T17:38:39.446Z,19.76
2019-05-14T17:41:09.391Z,19.73
2019-05-14T17:43:39.406Z,19.70
2019-05-14T17:46:09.926Z,19.65
2019-05-14T17:48:43.682Z,19.60
2019-05-14T17:51:11.856Z,19.55
2019-05-14T17:53:39.944Z,19.49
2019-05-14T17:56:09.459Z,19.42
2019-05-14T17:58:38.477Z,19.35
2019-05-14T18:01:09.011Z,19.28
2019-05-14T18:03:39.999Z,19.23
2019-05-14T18:06:09.476Z,19.18
2019-05-14T18:08:37.706Z,19.11
2019-05-14T18:11:08.697Z,19.05
2019-05-14T18:13:38.993Z,18.98
2019-05-14T18:16:24.067Z,18.91
2019-05-14T18:18:52.305Z,18.84
2019-05-14T18:21:20.346Z,18.78
2019-05-14T18:23:49.137Z,18.70
2019-05-14T18:26:18.902Z,18.65
2019-05-14T18:28:47.259Z,18.59
2019-05-14T18:31:15.383Z,18.51
2019-05-14T18:33:43.649Z,18.46
2019-05-14T18:36:11.708Z,18.39
2019-05-14T18:38:40.289Z,18.34
2019-05-14T18:41:18.832Z,18.29
2019-05-14T18:43:47.345Z,18.22
2019-05-14T18:46:15.401Z,18.16
2019-05-14T18:48:55.730Z,18.09
2019-05-14T18:51:23.914Z,18.01
2019-05-14T18:53:51.895Z,17.93
2019-05-14T18:56:24.275Z,17.85
2019-05-14T18:58:51.216Z,17.76
2019-05-14T19:01:19.870Z,17.66
2019-05-14T19:03:49.387Z,17.60
2019-05-14T19:06:28.463Z,17.54
2019-05-14T19:08:56.767Z,17.46
2019-05-14T19:11:27.973Z,17.39
2019-05-14T19:13:55.816Z,17.32
2019-05-14T19:16:33.027Z,17.26
2019-05-14T19:19:01.165Z,17.18
2019-05-14T19:21:29.382Z,17.08
2019-05-14T19:23:57.875Z,17.01
2019-05-14T19:26:36.130Z,16.91
2019-05-14T19:28:58.145Z,16.82
2019-05-14T19:31:34.762Z,16.76
2019-05-14T19:34:02.776Z,16.69
2019-05-14T19:36:31.205Z,16.62
2019-05-14T19:38:59.349Z,16.56
2019-05-14T19:41:28.155Z,16.52
2019-05-14T19:43:59.447Z,16.48
2019-05-14T19:46:34.615Z,16.43
2019-05-14T19:49:03.694Z,16.36
2019-05-14T19:51:31.871Z,16.30
2019-05-14T19:54:00.136Z,16.25
2019-05-14T19:56:29.361Z,16.20
2019-05-14T19:59:08.866Z,16.12
2019-05-14T20:01:38.532Z,16.05
2019-05-14T20:04:06.500Z,15.96
2019-05-14T20:06:38.884Z,15.89
2019-05-14T20:09:09.471Z,15.79
2019-05-14T20:11:39.922Z,15.70
2019-05-14T20:14:16.271Z,15.62
2019-05-14T20:16:44.611Z,15.55
2019-05-14T20:19:12.619Z,15.48
2019-05-14T20:21:40.779Z,15.40
2019-05-14T20:24:10.265Z,15.34
2019-05-14T20:26:39.099Z,15.26
2019-05-14T20:29:08.746Z,15.21
2019-05-14T20:31:38.962Z,15.13
2019-05-14T20:34:08.816Z,15.07
2019-05-14T20:36:38.984Z,15.01
2019-05-14T20:39:08.627Z,14.94
2019-05-14T20:41:38.456Z,14.90
2019-05-14T20:44:06.785Z,14.84
2019-05-14T20:46:34.839Z,14.80
2019-05-14T20:49:02.885Z,14.75
2019-05-14T20:51:30.972Z,14.69
2019-05-14T20:53:59.015Z,14.66
2019-05-14T20:56:28.440Z,14.61
2019-05-14T20:58:58.954Z,14.56
2019-05-14T21:01:29.097Z,14.52
2019-05-14T21:03:59.216Z,14.47
2019-05-14T21:06:28.538Z,14.40
2019-05-14T21:08:58.475Z,14.36
2019-05-14T21:11:28.710Z,14.30
2019-05-14T21:13:58.191Z,14.25
2019-05-14T21:16:28.231Z,14.18
2019-05-14T21:18:59.250Z,14.15
2019-05-14T21:21:28.357Z,14.10
2019-05-14T21:23:58.515Z,14.05
2019-05-14T21:26:29.034Z,14.03
2019-05-14T21:28:58.251Z,13.96
2019-05-14T21:31:28.406Z,13.89
2019-05-14T21:33:58.473Z,13.83
2019-05-14T21:36:28.433Z,13.79
2019-05-14T21:38:58.642Z,13.76
2019-05-14T21:41:29.025Z,13.75
2019-05-14T21:43:58.417Z,13.71
2019-05-14T21:46:28.906Z,13.66
2019-05-14T21:48:58.566Z,13.62
2019-05-14T21:51:28.398Z,13.55
2019-05-14T21:53:58.667Z,13.50
2019-05-14T21:56:29.011Z,13.44
2019-05-14T21:59:01.044Z,13.38
2019-05-14T22:01:30.924Z,13.31
2019-05-14T22:03:59.316Z,13.26
2019-05-14T22:06:29.186Z,13.19
2019-05-14T22:08:59.127Z,13.13
2019-05-14T22:11:28.242Z,13.08
2019-05-14T22:13:58.312Z,13.02
2019-05-14T22:16:28.123Z,12.98
2019-05-14T22:18:56.614Z,12.91
2019-05-14T22:21:24.675Z,12.85
2019-05-14T22:23:52.860Z,12.80
2019-05-14T22:26:21.629Z,12.76
2019-05-14T22:28:49.719Z,12.72
2019-05-14T22:31:19.299Z,12.68
2019-05-14T22:33:47.630Z,12.65
2019-05-14T22:36:20.892Z,12.63
2019-05-14T22:38:48.272Z,12.61
2019-05-14T22:41:18.330Z,12.58
2019-05-14T22:43:51.112Z,12.57
2019-05-14T22:46:18.062Z,12.56
2019-05-14T22:48:48.872Z,12.52
2019-05-14T22:51:18.314Z,12.50
2019-05-14T22:53:46.528Z,12.50
2019-05-14T22:56:14.569Z,12.48
2019-05-14T22:58:42.658Z,12.48
2019-05-14T23:01:14.809Z,12.49
2019-05-14T23:03:40.729Z,12.49
2019-05-14T23:06:09.096Z,12.50
2019-05-14T23:08:39.212Z,12.50
2019-05-14T23:11:08.662Z,12.51
2019-05-14T23:13:39.183Z,12.51
2019-05-14T23:16:08.249Z,12.52
2019-05-14T23:18:37.986Z,12.52
2019-05-14T23:21:08.729Z,12.53
2019-05-14T23:23:36.262Z,12.55
2019-05-14T23:26:04.284Z,12.56
2019-05-14T23:28:42.511Z,12.56
2019-05-14T23:31:03.307Z,12.55
2019-05-14T23:33:31.417Z,12.55
2019-05-14T23:35:59.613Z,12.53
2019-05-14T23:38:28.966Z,12.53
2019-05-14T23:40:58.816Z,12.52
2019-05-14T23:43:28.797Z,12.51
2019-05-14T23:45:58.389Z,12.50
2019-05-14T23:48:26.899Z,12.50
2019-05-14T23:50:55.037Z,12.49
2019-05-14T23:53:24.218Z,12.49
2019-05-14T23:55:52.242Z,12.47
2019-05-14T23:58:20.889Z,12.45
